Danali, Honduras
Current Conditions -  °F | °C
As of 9:00 AM on Saturday 22 Nov 2014 (Local Time) from MHTG Reporting Station
Broken Clouds Broken Clouds  
Wind Chill: 22°   Ceiling: 2600
Heat Index: 22°   Visibility: 6mi
Dew Point: 19°   Wind: 7mph
Humidity: 83%   Direction: 350°N
Pressure: 30.15"   Gusts: NA
Location:  14.02°N, 86.3°W
Report Text: MHTG 221500Z 35006KT 9999 FEW020 BKN026 22/19 Q1021 A3015NOSIG
Loading
Personal Weather Stations






























Interactive Weather Map New forecast layout! Learn more

10-Day Weather Forecast

Advertisements
Track Severe Weather on mobile